sensor_id;sensor_type;location;lat;lon;timestamp;P1;durP1;ratioP1;P2;durP2;ratioP2
20150;SDS011;10236;49.638;6.830;2024-03-23T00:56:24;38.40;;;24.07;;
20150;SDS011;10236;49.638;6.830;2024-03-23T00:58:50;39.03;;;24.63;;
20150;SDS011;10236;49.638;6.830;2024-03-23T01:01:16;40.47;;;23.57;;
20150;SDS011;10236;49.638;6.830;2024-03-23T01:03:42;40.53;;;24.97;;
20150;SDS011;10236;49.638;6.830;2024-03-23T01:06:08;39.53;;;23.70;;
20150;SDS011;10236;49.638;6.830;2024-03-23T01:08:34;37.33;;;23.63;;
20150;SDS011;10236;49.638;6.830;2024-03-23T01:11:00;43.77;;;24.83;;
20150;SDS011;10236;49.638;6.830;2024-03-23T01:13:26;40.17;;;24.83;;
20150;SDS011;10236;49.638;6.830;2024-03-23T01:15:53;36.87;;;23.13;;
20150;SDS011;10236;49.638;6.830;2024-03-23T01:18:19;41.57;;;22.53;;
20150;SDS011;10236;49.638;6.830;2024-03-23T01:20:45;35.37;;;21.93;;
20150;SDS011;10236;49.638;6.830;2024-03-23T01:23:11;37.33;;;22.37;;
20150;SDS011;10236;49.638;6.830;2024-03-23T01:25:37;37.67;;;22.23;;
20150;SDS011;10236;49.638;6.830;2024-03-23T01:28:03;36.37;;;21.67;;
20150;SDS011;10236;49.638;6.830;2024-03-23T01:30:29;41.53;;;23.27;;
20150;SDS011;10236;49.638;6.830;2024-03-23T01:32:55;39.20;;;20.50;;
20150;SDS011;10236;49.638;6.830;2024-03-23T01:35:21;35.30;;;21.70;;
20150;SDS011;10236;49.638;6.830;2024-03-23T01:37:48;37.67;;;20.10;;
20150;SDS011;10236;49.638;6.830;2024-03-23T01:40:13;33.77;;;18.87;;
20150;SDS011;10236;49.638;6.830;2024-03-23T01:42:39;34.73;;;19.40;;
20150;SDS011;10236;49.638;6.830;2024-03-23T01:45:09;32.43;;;19.67;;
20150;SDS011;10236;49.638;6.830;2024-03-23T01:47:35;27.77;;;17.30;;
20150;SDS011;10236;49.638;6.830;2024-03-23T01:50:01;27.53;;;16.27;;
20150;SDS011;10236;49.638;6.830;2024-03-23T01:52:27;27.30;;;17.17;;
20150;SDS011;10236;49.638;6.830;2024-03-23T01:54:53;28.47;;;16.50;;
20150;SDS011;10236;49.638;6.830;2024-03-23T01:57:19;27.80;;;16.60;;
20150;SDS011;10236;49.638;6.830;2024-03-23T01:59:46;27.47;;;16.53;;
20150;SDS011;10236;49.638;6.830;2024-03-23T02:02:12;26.13;;;16.57;;
20150;SDS011;10236;49.638;6.830;2024-03-23T02:04:38;27.60;;;16.37;;
20150;SDS011;10236;49.638;6.830;2024-03-23T02:07:04;33.17;;;16.93;;
20150;SDS011;10236;49.638;6.830;2024-03-23T02:09:32;33.73;;;17.37;;
20150;SDS011;10236;49.638;6.830;2024-03-23T02:11:58;27.87;;;17.30;;
20150;SDS011;10236;49.638;6.830;2024-03-23T02:14:24;28.27;;;15.77;;
20150;SDS011;10236;49.638;6.830;2024-03-23T02:16:50;23.47;;;15.03;;
20150;SDS011;10236;49.638;6.830;2024-03-23T02:19:16;28.57;;;14.60;;
20150;SDS011;10236;49.638;6.830;2024-03-23T02:21:42;26.67;;;14.43;;
20150;SDS011;10236;49.638;6.830;2024-03-23T02:24:08;22.97;;;13.10;;
20150;SDS011;10236;49.638;6.830;2024-03-23T02:26:34;29.10;;;15.03;;
20150;SDS011;10236;49.638;6.830;2024-03-23T02:29:00;23.77;;;14.07;;
20150;SDS011;10236;49.638;6.830;2024-03-23T02:31:26;22.63;;;13.03;;
20150;SDS011;10236;49.638;6.830;2024-03-23T02:33:52;19.67;;;12.67;;
20150;SDS011;10236;49.638;6.830;2024-03-23T02:36:18;23.03;;;13.40;;
20150;SDS011;10236;49.638;6.830;2024-03-23T02:38:46;18.07;;;11.63;;
20150;SDS011;10236;49.638;6.830;2024-03-23T02:41:11;18.97;;;10.97;;
20150;SDS011;10236;49.638;6.830;2024-03-23T02:43:38;22.57;;;11.73;;
20150;SDS011;10236;49.638;6.830;2024-03-23T02:46:04;19.67;;;11.00;;
20150;SDS011;10236;49.638;6.830;2024-03-23T02:48:30;20.43;;;11.33;;
20150;SDS011;10236;49.638;6.830;2024-03-23T02:50:56;14.77;;;8.27;;
20150;SDS011;10236;49.638;6.830;2024-03-23T02:53:22;13.37;;;8.10;;
20150;SDS011;10236;49.638;6.830;2024-03-23T02:55:48;10.97;;;6.57;;
20150;SDS011;10236;49.638;6.830;2024-03-23T02:58:14;8.47;;;5.47;;
20150;SDS011;10236;49.638;6.830;2024-03-23T03:00:40;6.40;;;3.90;;
20150;SDS011;10236;49.638;6.830;2024-03-23T03:03:06;5.10;;;3.13;;
20150;SDS011;10236;49.638;6.830;2024-03-23T03:05:32;6.50;;;3.13;;
20150;SDS011;10236;49.638;6.830;2024-03-23T03:07:58;4.33;;;3.20;;
20150;SDS011;10236;49.638;6.830;2024-03-23T03:10:24;4.03;;;3.07;;
20150;SDS011;10236;49.638;6.830;2024-03-23T03:12:50;5.63;;;3.50;;
20150;SDS011;10236;49.638;6.830;2024-03-23T03:15:16;4.93;;;3.43;;
20150;SDS011;10236;49.638;6.830;2024-03-23T03:17:42;3.73;;;3.13;;
20150;SDS011;10236;49.638;6.830;2024-03-23T03:20:08;2.83;;;2.43;;
20150;SDS011;10236;49.638;6.830;2024-03-23T03:22:38;2.67;;;1.80;;
20150;SDS011;10236;49.638;6.830;2024-03-23T03:25:04;2.17;;;1.47;;
20150;SDS011;10236;49.638;6.830;2024-03-23T03:27:31;3.00;;;1.97;;
20150;SDS011;10236;49.638;6.830;2024-03-23T03:29:57;3.63;;;2.50;;
20150;SDS011;10236;49.638;6.830;2024-03-23T03:32:25;2.93;;;2.33;;
20150;SDS011;10236;49.638;6.830;2024-03-23T03:34:51;1.77;;;1.50;;
20150;SDS011;10236;49.638;6.830;2024-03-23T03:37:17;2.33;;;1.47;;
20150;SDS011;10236;49.638;6.830;2024-03-23T03:39:43;2.00;;;1.83;;
20150;SDS011;10236;49.638;6.830;2024-03-23T03:42:09;2.10;;;1.60;;
20150;SDS011;10236;49.638;6.830;2024-03-23T03:44:35;2.40;;;1.60;;
20150;SDS011;10236;49.638;6.830;2024-03-23T03:47:01;2.00;;;1.47;;
20150;SDS011;10236;49.638;6.830;2024-03-23T03:49:28;2.23;;;1.43;;
20150;SDS011;10236;49.638;6.830;2024-03-23T03:51:54;2.37;;;1.57;;
20150;SDS011;10236;49.638;6.830;2024-03-23T03:54:20;3.43;;;1.70;;
20150;SDS011;10236;49.638;6.830;2024-03-23T03:56:46;3.37;;;2.50;;
20150;SDS011;10236;49.638;6.830;2024-03-23T03:59:12;2.77;;;2.07;;
20150;SDS011;10236;49.638;6.830;2024-03-23T04:01:39;1.97;;;1.37;;
20150;SDS011;10236;49.638;6.830;2024-03-23T04:04:05;1.80;;;1.37;;
20150;SDS011;10236;49.638;6.830;2024-03-23T04:06:31;1.80;;;1.20;;
20150;SDS011;10236;49.638;6.830;2024-03-23T04:08:58;2.97;;;1.53;;
20150;SDS011;10236;49.638;6.830;2024-03-23T04:11:24;2.83;;;1.90;;
20150;SDS011;10236;49.638;6.830;2024-03-23T04:13:50;3.23;;;2.17;;
20150;SDS011;10236;49.638;6.830;2024-03-23T04:16:26;2.23;;;1.30;;
20150;SDS011;10236;49.638;6.830;2024-03-23T04:18:52;5.20;;;3.17;;
20150;SDS011;10236;49.638;6.830;2024-03-23T04:21:19;1.83;;;1.60;;
20150;SDS011;10236;49.638;6.830;2024-03-23T04:23:45;3.27;;;2.40;;
20150;SDS011;10236;49.638;6.830;2024-03-23T04:26:10;2.70;;;1.60;;
20150;SDS011;10236;49.638;6.830;2024-03-23T04:28:36;2.33;;;1.93;;
20150;SDS011;10236;49.638;6.830;2024-03-23T04:31:05;1.70;;;1.60;;
20150;SDS011;10236;49.638;6.830;2024-03-23T04:33:31;3.33;;;2.77;;
20150;SDS011;10236;49.638;6.830;2024-03-23T04:35:57;2.87;;;2.40;;
20150;SDS011;10236;49.638;6.830;2024-03-23T04:38:23;5.37;;;3.60;;
20150;SDS011;10236;49.638;6.830;2024-03-23T04:40:56;3.70;;;3.10;;
20150;SDS011;10236;49.638;6.830;2024-03-23T04:43:22;3.20;;;2.20;;
20150;SDS011;10236;49.638;6.830;2024-03-23T04:45:48;2.87;;;2.13;;
20150;SDS011;10236;49.638;6.830;2024-03-23T04:48:14;3.60;;;2.73;;
20150;SDS011;10236;49.638;6.830;2024-03-23T04:50:40;2.47;;;2.07;;
20150;SDS011;10236;49.638;6.830;2024-03-23T04:53:06;2.37;;;1.80;;
20150;SDS011;10236;49.638;6.830;2024-03-23T04:55:32;1.97;;;1.73;;
20150;SDS011;10236;49.638;6.830;2024-03-23T04:57:58;2.83;;;2.07;;
20150;SDS011;10236;49.638;6.830;2024-03-23T05:00:25;2.90;;;2.07;;
20150;SDS011;10236;49.638;6.830;2024-03-23T05:02:51;2.60;;;1.97;;
20150;SDS011;10236;49.638;6.830;2024-03-23T05:05:18;2.17;;;1.67;;
20150;SDS011;10236;49.638;6.830;2024-03-23T05:07:44;2.20;;;1.90;;
20150;SDS011;10236;49.638;6.830;2024-03-23T05:10:10;2.90;;;2.43;;
20150;SDS011;10236;49.638;6.830;2024-03-23T05:12:39;2.27;;;2.07;;
20150;SDS011;10236;49.638;6.830;2024-03-23T05:15:05;2.30;;;2.07;;
20150;SDS011;10236;49.638;6.830;2024-03-23T05:17:32;3.10;;;1.93;;
20150;SDS011;10236;49.638;6.830;2024-03-23T05:19:58;2.47;;;1.80;;
20150;SDS011;10236;49.638;6.830;2024-03-23T05:22:25;3.03;;;1.83;;
20150;SDS011;10236;49.638;6.830;2024-03-23T05:24:52;2.40;;;2.13;;
20150;SDS011;10236;49.638;6.830;2024-03-23T05:27:18;3.63;;;2.30;;
20150;SDS011;10236;49.638;6.830;2024-03-23T05:29:44;4.03;;;2.30;;
20150;SDS011;10236;49.638;6.830;2024-03-23T05:32:10;2.67;;;1.93;;
20150;SDS011;10236;49.638;6.830;2024-03-23T05:34:36;3.17;;;2.50;;
20150;SDS011;10236;49.638;6.830;2024-03-23T05:37:02;3.80;;;2.27;;
20150;SDS011;10236;49.638;6.830;2024-03-23T05:39:28;6.40;;;2.37;;
20150;SDS011;10236;49.638;6.830;2024-03-23T05:41:54;7.27;;;2.20;;
20150;SDS011;10236;49.638;6.830;2024-03-23T05:44:20;6.17;;;2.83;;
20150;SDS011;10236;49.638;6.830;2024-03-23T05:46:45;4.73;;;2.77;;
20150;SDS011;10236;49.638;6.830;2024-03-23T05:49:13;8.40;;;3.03;;
20150;SDS011;10236;49.638;6.830;2024-03-23T05:51:39;10.47;;;2.67;;
20150;SDS011;10236;49.638;6.830;2024-03-23T05:54:05;7.03;;;2.50;;
20150;SDS011;10236;49.638;6.830;2024-03-23T05:56:31;6.87;;;2.07;;
20150;SDS011;10236;49.638;6.830;2024-03-23T05:58:57;6.57;;;2.37;;
20150;SDS011;10236;49.638;6.830;2024-03-23T06:01:23;7.17;;;2.80;;
20150;SDS011;10236;49.638;6.830;2024-03-23T06:03:49;4.17;;;2.70;;
20150;SDS011;10236;49.638;6.830;2024-03-23T06:06:16;6.73;;;2.97;;
20150;SDS011;10236;49.638;6.830;2024-03-23T06:08:41;9.87;;;4.00;;
20150;SDS011;10236;49.638;6.830;2024-03-23T06:11:07;7.33;;;3.50;;
20150;SDS011;10236;49.638;6.830;2024-03-23T06:13:33;12.60;;;4.17;;
20150;SDS011;10236;49.638;6.830;2024-03-23T06:16:00;13.37;;;4.90;;
20150;SDS011;10236;49.638;6.830;2024-03-23T06:18:26;14.43;;;6.67;;
20150;SDS011;10236;49.638;6.830;2024-03-23T06:20:52;15.77;;;5.90;;
20150;SDS011;10236;49.638;6.830;2024-03-23T06:23:18;15.23;;;5.73;;
20150;SDS011;10236;49.638;6.830;2024-03-23T06:25:45;16.73;;;7.03;;
20150;SDS011;10236;49.638;6.830;2024-03-23T06:28:11;14.27;;;6.80;;
20150;SDS011;10236;49.638;6.830;2024-03-23T06:30:37;18.23;;;10.27;;
20150;SDS011;10236;49.638;6.830;2024-03-23T06:33:03;17.40;;;7.00;;
20150;SDS011;10236;49.638;6.830;2024-03-23T06:35:30;19.63;;;8.50;;
20150;SDS011;10236;49.638;6.830;2024-03-23T06:37:56;20.17;;;9.37;;
20150;SDS011;10236;49.638;6.830;2024-03-23T06:40:23;17.23;;;6.47;;
20150;SDS011;10236;49.638;6.830;2024-03-23T06:42:49;15.47;;;6.90;;
20150;SDS011;10236;49.638;6.830;2024-03-23T06:45:16;16.77;;;9.20;;
20150;SDS011;10236;49.638;6.830;2024-03-23T06:47:47;17.63;;;7.50;;
20150;SDS011;10236;49.638;6.830;2024-03-23T06:50:13;19.20;;;7.80;;
20150;SDS011;10236;49.638;6.830;2024-03-23T06:52:39;21.90;;;9.50;;
20150;SDS011;10236;49.638;6.830;2024-03-23T06:55:05;28.57;;;11.30;;
20150;SDS011;10236;49.638;6.830;2024-03-23T06:57:31;82.83;;;33.43;;
20150;SDS011;10236;49.638;6.830;2024-03-23T06:59:57;17.23;;;7.63;;
20150;SDS011;10236;49.638;6.830;2024-03-23T07:02:23;28.83;;;12.10;;
20150;SDS011;10236;49.638;6.830;2024-03-23T07:04:49;43.47;;;17.70;;
20150;SDS011;10236;49.638;6.830;2024-03-23T07:07:15;54.40;;;20.17;;
20150;SDS011;10236;49.638;6.830;2024-03-23T07:09:41;43.77;;;16.00;;
20150;SDS011;10236;49.638;6.830;2024-03-23T07:12:07;20.43;;;7.20;;
20150;SDS011;10236;49.638;6.830;2024-03-23T07:14:33;46.63;;;18.00;;
20150;SDS011;10236;49.638;6.830;2024-03-23T07:16:59;39.27;;;13.43;;
20150;SDS011;10236;49.638;6.830;2024-03-23T07:19:25;28.87;;;9.37;;
20150;SDS011;10236;49.638;6.830;2024-03-23T07:21:51;31.63;;;12.53;;
20150;SDS011;10236;49.638;6.830;2024-03-23T07:24:17;24.03;;;10.83;;
20150;SDS011;10236;49.638;6.830;2024-03-23T07:26:43;52.83;;;22.90;;
20150;SDS011;10236;49.638;6.830;2024-03-23T07:29:09;30.80;;;12.53;;
20150;SDS011;10236;49.638;6.830;2024-03-23T07:31:35;32.93;;;13.83;;
20150;SDS011;10236;49.638;6.830;2024-03-23T07:34:01;21.57;;;10.73;;
20150;SDS011;10236;49.638;6.830;2024-03-23T07:36:26;29.80;;;13.03;;
20150;SDS011;10236;49.638;6.830;2024-03-23T07:38:52;108.93;;;29.33;;
20150;SDS011;10236;49.638;6.830;2024-03-23T07:41:19;87.60;;;24.47;;
20150;SDS011;10236;49.638;6.830;2024-03-23T07:43:45;23.43;;;11.07;;
20150;SDS011;10236;49.638;6.830;2024-03-23T07:46:12;29.67;;;12.10;;
20150;SDS011;10236;49.638;6.830;2024-03-23T07:48:38;21.70;;;10.73;;
20150;SDS011;10236;49.638;6.830;2024-03-23T07:51:08;39.23;;;16.83;;
20150;SDS011;10236;49.638;6.830;2024-03-23T07:53:34;20.57;;;9.13;;
20150;SDS011;10236;49.638;6.830;2024-03-23T07:58:26;21.17;;;9.83;;
20150;SDS011;10236;49.638;6.830;2024-03-23T08:00:53;20.20;;;10.73;;
20150;SDS011;10236;49.638;6.830;2024-03-23T08:03:19;19.00;;;9.43;;
20150;SDS011;10236;49.638;6.830;2024-03-23T08:05:45;21.33;;;10.17;;
20150;SDS011;10236;49.638;6.830;2024-03-23T08:08:11;20.77;;;10.80;;
20150;SDS011;10236;49.638;6.830;2024-03-23T08:10:37;15.83;;;8.30;;
20150;SDS011;10236;49.638;6.830;2024-03-23T08:13:12;16.23;;;6.93;;
20150;SDS011;10236;49.638;6.830;2024-03-23T08:15:38;12.53;;;6.77;;
20150;SDS011;10236;49.638;6.830;2024-03-23T08:18:04;13.60;;;7.30;;
20150;SDS011;10236;49.638;6.830;2024-03-23T08:20:30;19.57;;;7.60;;
20150;SDS011;10236;49.638;6.830;2024-03-23T08:22:56;14.30;;;6.57;;
20150;SDS011;10236;49.638;6.830;2024-03-23T08:25:22;11.47;;;6.00;;
20150;SDS011;10236;49.638;6.830;2024-03-23T08:27:48;16.73;;;6.60;;
20150;SDS011;10236;49.638;6.830;2024-03-23T08:30:14;18.10;;;6.43;;
20150;SDS011;10236;49.638;6.830;2024-03-23T08:32:40;13.60;;;6.73;;
20150;SDS011;10236;49.638;6.830;2024-03-23T08:35:06;13.67;;;6.13;;
20150;SDS011;10236;49.638;6.830;2024-03-23T08:37:32;13.23;;;6.47;;
20150;SDS011;10236;49.638;6.830;2024-03-23T08:39:58;18.10;;;7.93;;
20150;SDS011;10236;49.638;6.830;2024-03-23T08:42:24;18.27;;;8.17;;
20150;SDS011;10236;49.638;6.830;2024-03-23T08:44:49;16.70;;;8.00;;
20150;SDS011;10236;49.638;6.830;2024-03-23T08:47:16;30.23;;;14.43;;
20150;SDS011;10236;49.638;6.830;2024-03-23T08:49:42;18.23;;;7.80;;
20150;SDS011;10236;49.638;6.830;2024-03-23T08:52:08;17.87;;;8.67;;
20150;SDS011;10236;49.638;6.830;2024-03-23T08:54:34;17.87;;;8.07;;
20150;SDS011;10236;49.638;6.830;2024-03-23T08:57:00;22.67;;;7.40;;
20150;SDS011;10236;49.638;6.830;2024-03-23T08:59:26;20.13;;;7.63;;
20150;SDS011;10236;49.638;6.830;2024-03-23T09:01:52;22.17;;;8.10;;
20150;SDS011;10236;49.638;6.830;2024-03-23T09:04:18;21.50;;;8.33;;
20150;SDS011;10236;49.638;6.830;2024-03-23T09:06:44;16.17;;;6.97;;
20150;SDS011;10236;49.638;6.830;2024-03-23T09:09:10;27.23;;;9.10;;
20150;SDS011;10236;49.638;6.830;2024-03-23T09:11:36;15.40;;;5.63;;
20150;SDS011;10236;49.638;6.830;2024-03-23T09:14:02;17.20;;;5.10;;
20150;SDS011;10236;49.638;6.830;2024-03-23T09:16:28;12.73;;;6.47;;
20150;SDS011;10236;49.638;6.830;2024-03-23T09:18:54;16.03;;;5.97;;
20150;SDS011;10236;49.638;6.830;2024-03-23T09:21:20;10.60;;;4.73;;
20150;SDS011;10236;49.638;6.830;2024-03-23T09:23:46;11.50;;;5.33;;
20150;SDS011;10236;49.638;6.830;2024-03-23T09:26:12;12.77;;;5.87;;
20150;SDS011;10236;49.638;6.830;2024-03-23T09:28:38;12.00;;;5.03;;
20150;SDS011;10236;49.638;6.830;2024-03-23T09:31:05;11.70;;;6.00;;
20150;SDS011;10236;49.638;6.830;2024-03-23T09:33:31;10.60;;;5.67;;
20150;SDS011;10236;49.638;6.830;2024-03-23T09:35:57;11.80;;;4.53;;
20150;SDS011;10236;49.638;6.830;2024-03-23T09:38:23;10.50;;;4.43;;
20150;SDS011;10236;49.638;6.830;2024-03-23T09:40:52;11.07;;;3.83;;
20150;SDS011;10236;49.638;6.830;2024-03-23T09:43:19;9.20;;;3.20;;
20150;SDS011;10236;49.638;6.830;2024-03-23T09:45:45;10.33;;;3.97;;
20150;SDS011;10236;49.638;6.830;2024-03-23T09:48:11;9.93;;;4.27;;
20150;SDS011;10236;49.638;6.830;2024-03-23T09:53:03;9.10;;;3.37;;
20150;SDS011;10236;49.638;6.830;2024-03-23T09:55:29;11.27;;;4.00;;
20150;SDS011;10236;49.638;6.830;2024-03-23T09:57:55;8.83;;;3.07;;
20150;SDS011;10236;49.638;6.830;2024-03-23T10:00:21;13.53;;;3.63;;
20150;SDS011;10236;49.638;6.830;2024-03-23T10:02:47;9.97;;;3.33;;
20150;SDS011;10236;49.638;6.830;2024-03-23T10:05:20;11.30;;;3.70;;
20150;SDS011;10236;49.638;6.830;2024-03-23T10:07:52;14.00;;;4.00;;
20150;SDS011;10236;49.638;6.830;2024-03-23T10:10:18;7.60;;;3.30;;
20150;SDS011;10236;49.638;6.830;2024-03-23T10:12:46;8.13;;;4.10;;
20150;SDS011;10236;49.638;6.830;2024-03-23T10:15:20;11.13;;;3.57;;
20150;SDS011;10236;49.638;6.830;2024-03-23T10:17:46;7.43;;;3.70;;
20150;SDS011;10236;49.638;6.830;2024-03-23T10:20:12;7.33;;;3.37;;
20150;SDS011;10236;49.638;6.830;2024-03-23T10:22:38;10.83;;;4.03;;
20150;SDS011;10236;49.638;6.830;2024-03-23T10:25:08;9.87;;;3.47;;
20150;SDS011;10236;49.638;6.830;2024-03-23T10:27:34;12.23;;;3.77;;
20150;SDS011;10236;49.638;6.830;2024-03-23T10:30:07;9.30;;;3.63;;
20150;SDS011;10236;49.638;6.830;2024-03-23T10:32:34;11.73;;;4.00;;
20150;SDS011;10236;49.638;6.830;2024-03-23T10:37:43;9.33;;;4.03;;
20150;SDS011;10236;49.638;6.830;2024-03-23T10:40:10;15.27;;;3.53;;
20150;SDS011;10236;49.638;6.830;2024-03-23T10:42:37;12.47;;;3.10;;
20150;SDS011;10236;49.638;6.830;2024-03-23T10:45:06;9.87;;;3.13;;
20150;SDS011;10236;49.638;6.830;2024-03-23T10:47:36;9.00;;;2.77;;
20150;SDS011;10236;49.638;6.830;2024-03-23T10:50:03;8.93;;;2.93;;
20150;SDS011;10236;49.638;6.830;2024-03-23T10:52:32;11.80;;;3.27;;
20150;SDS011;10236;49.638;6.830;2024-03-23T10:54:58;4.90;;;2.03;;
20150;SDS011;10236;49.638;6.830;2024-03-23T10:57:27;10.43;;;4.10;;
20150;SDS011;10236;49.638;6.830;2024-03-23T10:59:55;14.67;;;6.70;;
20150;SDS011;10236;49.638;6.830;2024-03-23T11:02:22;9.73;;;3.37;;
20150;SDS011;10236;49.638;6.830;2024-03-23T11:04:48;9.03;;;3.40;;
20150;SDS011;10236;49.638;6.830;2024-03-23T11:09:49;6.23;;;2.30;;
20150;SDS011;10236;49.638;6.830;2024-03-23T11:15:34;3.30;;;1.60;;
20150;SDS011;10236;49.638;6.830;2024-03-23T11:17:35;6.27;;;2.53;;
20150;SDS011;10236;49.638;6.830;2024-03-23T11:20:04;7.97;;;3.50;;
20150;SDS011;10236;49.638;6.830;2024-03-23T11:27:41;3.37;;;2.30;;
20150;SDS011;10236;49.638;6.830;2024-03-23T11:30:26;7.03;;;2.17;;
20150;SDS011;10236;49.638;6.830;2024-03-23T11:32:54;3.97;;;1.80;;
20150;SDS011;10236;49.638;6.830;2024-03-23T11:38:02;9.17;;;3.57;;
20150;SDS011;10236;49.638;6.830;2024-03-23T11:40:28;7.13;;;2.93;;
20150;SDS011;10236;49.638;6.830;2024-03-23T11:43:03;4.30;;;1.90;;
20150;SDS011;10236;49.638;6.830;2024-03-23T11:45:33;6.50;;;1.80;;
20150;SDS011;10236;49.638;6.830;2024-03-23T11:50:30;4.07;;;1.97;;
20150;SDS011;10236;49.638;6.830;2024-03-23T11:53:16;3.87;;;1.63;;
20150;SDS011;10236;49.638;6.830;2024-03-23T11:55:46;4.90;;;1.40;;
20150;SDS011;10236;49.638;6.830;2024-03-23T11:58:12;4.43;;;1.50;;
20150;SDS011;10236;49.638;6.830;2024-03-23T12:00:39;4.43;;;1.33;;
20150;SDS011;10236;49.638;6.830;2024-03-23T12:03:05;8.53;;;1.93;;
20150;SDS011;10236;49.638;6.830;2024-03-23T12:05:31;3.70;;;1.70;;
20150;SDS011;10236;49.638;6.830;2024-03-23T12:10:52;4.30;;;1.83;;
20150;SDS011;10236;49.638;6.830;2024-03-23T12:13:21;4.73;;;1.47;;
20150;SDS011;10236;49.638;6.830;2024-03-23T12:15:49;2.97;;;1.67;;
20150;SDS011;10236;49.638;6.830;2024-03-23T12:18:16;4.57;;;1.00;;
20150;SDS011;10236;49.638;6.830;2024-03-23T12:20:42;3.57;;;1.40;;
20150;SDS011;10236;49.638;6.830;2024-03-23T12:23:11;2.87;;;1.27;;
20150;SDS011;10236;49.638;6.830;2024-03-23T12:25:50;4.33;;;1.20;;
20150;SDS011;10236;49.638;6.830;2024-03-23T12:28:16;2.90;;;1.27;;
20150;SDS011;10236;49.638;6.830;2024-03-23T12:30:42;3.63;;;1.23;;
20150;SDS011;10236;49.638;6.830;2024-03-23T12:33:08;6.00;;;1.10;;
20150;SDS011;10236;49.638;6.830;2024-03-23T12:35:34;3.77;;;1.20;;
20150;SDS011;10236;49.638;6.830;2024-03-23T12:38:00;5.10;;;1.10;;
20150;SDS011;10236;49.638;6.830;2024-03-23T12:40:26;6.27;;;1.10;;
20150;SDS011;10236;49.638;6.830;2024-03-23T12:42:55;6.87;;;1.67;;
20150;SDS011;10236;49.638;6.830;2024-03-23T12:45:22;3.57;;;1.60;;
20150;SDS011;10236;49.638;6.830;2024-03-23T12:47:48;4.80;;;1.77;;
20150;SDS011;10236;49.638;6.830;2024-03-23T12:50:14;4.47;;;1.97;;
20150;SDS011;10236;49.638;6.830;2024-03-23T12:52:39;6.30;;;1.57;;
20150;SDS011;10236;49.638;6.830;2024-03-23T12:55:06;9.37;;;1.70;;
20150;SDS011;10236;49.638;6.830;2024-03-23T12:57:32;5.07;;;1.13;;
20150;SDS011;10236;49.638;6.830;2024-03-23T12:59:58;4.37;;;1.10;;
20150;SDS011;10236;49.638;6.830;2024-03-23T13:02:25;3.80;;;1.30;;
20150;SDS011;10236;49.638;6.830;2024-03-23T13:04:51;4.87;;;1.50;;
20150;SDS011;10236;49.638;6.830;2024-03-23T13:07:18;2.90;;;0.97;;
20150;SDS011;10236;49.638;6.830;2024-03-23T13:09:44;6.83;;;1.60;;
20150;SDS011;10236;49.638;6.830;2024-03-23T13:12:10;5.83;;;1.40;;
20150;SDS011;10236;49.638;6.830;2024-03-23T13:14:40;6.60;;;0.97;;
20150;SDS011;10236;49.638;6.830;2024-03-23T13:17:06;3.90;;;0.70;;
20150;SDS011;10236;49.638;6.830;2024-03-23T13:19:32;2.37;;;0.83;;
20150;SDS011;10236;49.638;6.830;2024-03-23T13:21:59;4.57;;;0.90;;
20150;SDS011;10236;49.638;6.830;2024-03-23T13:24:25;2.30;;;1.00;;
20150;SDS011;10236;49.638;6.830;2024-03-23T13:26:51;2.10;;;0.70;;
20150;SDS011;10236;49.638;6.830;2024-03-23T13:29:18;3.63;;;0.90;;
20150;SDS011;10236;49.638;6.830;2024-03-23T13:31:45;4.30;;;1.00;;
20150;SDS011;10236;49.638;6.830;2024-03-23T13:34:11;2.33;;;0.70;;
20150;SDS011;10236;49.638;6.830;2024-03-23T13:36:39;5.40;;;1.50;;
20150;SDS011;10236;49.638;6.830;2024-03-23T13:39:05;2.03;;;0.70;;
20150;SDS011;10236;49.638;6.830;2024-03-23T13:41:36;2.10;;;1.10;;
20150;SDS011;10236;49.638;6.830;2024-03-23T13:44:02;1.73;;;0.73;;
20150;SDS011;10236;49.638;6.830;2024-03-23T13:46:28;4.40;;;1.17;;
20150;SDS011;10236;49.638;6.830;2024-03-23T13:48:54;3.47;;;1.43;;
20150;SDS011;10236;49.638;6.830;2024-03-23T13:51:23;2.23;;;1.03;;
20150;SDS011;10236;49.638;6.830;2024-03-23T13:53:50;7.47;;;1.70;;
20150;SDS011;10236;49.638;6.830;2024-03-23T13:56:16;5.17;;;2.30;;
20150;SDS011;10236;49.638;6.830;2024-03-23T13:58:42;2.70;;;1.40;;
20150;SDS011;10236;49.638;6.830;2024-03-23T14:01:14;5.40;;;1.20;;
20150;SDS011;10236;49.638;6.830;2024-03-23T14:03:40;3.40;;;1.17;;
20150;SDS011;10236;49.638;6.830;2024-03-23T14:06:06;2.20;;;0.97;;
20150;SDS011;10236;49.638;6.830;2024-03-23T14:08:33;3.97;;;1.10;;
20150;SDS011;10236;49.638;6.830;2024-03-23T14:11:00;2.57;;;0.90;;
20150;SDS011;10236;49.638;6.830;2024-03-23T14:13:27;7.93;;;1.73;;
20150;SDS011;10236;49.638;6.830;2024-03-23T14:15:54;3.67;;;0.73;;
20150;SDS011;10236;49.638;6.830;2024-03-23T14:18:20;2.20;;;0.70;;
20150;SDS011;10236;49.638;6.830;2024-03-23T14:20:47;3.63;;;0.90;;
20150;SDS011;10236;49.638;6.830;2024-03-23T14:23:13;1.60;;;0.60;;
20150;SDS011;10236;49.638;6.830;2024-03-23T14:25:39;1.40;;;0.90;;
20150;SDS011;10236;49.638;6.830;2024-03-23T14:28:05;3.83;;;0.80;;
20150;SDS011;10236;49.638;6.830;2024-03-23T14:30:33;1.97;;;0.70;;
20150;SDS011;10236;49.638;6.830;2024-03-23T14:32:59;3.20;;;0.87;;
20150;SDS011;10236;49.638;6.830;2024-03-23T14:35:25;3.17;;;1.00;;
20150;SDS011;10236;49.638;6.830;2024-03-23T14:37:51;5.43;;;1.33;;
20150;SDS011;10236;49.638;6.830;2024-03-23T14:40:18;5.00;;;1.00;;
20150;SDS011;10236;49.638;6.830;2024-03-23T14:42:44;3.10;;;1.00;;
20150;SDS011;10236;49.638;6.830;2024-03-23T14:45:10;5.17;;;1.60;;
20150;SDS011;10236;49.638;6.830;2024-03-23T14:47:36;6.10;;;1.57;;
20150;SDS011;10236;49.638;6.830;2024-03-23T14:50:02;4.30;;;1.60;;
20150;SDS011;10236;49.638;6.830;2024-03-23T14:52:28;5.90;;;2.27;;
20150;SDS011;10236;49.638;6.830;2024-03-23T14:54:54;11.90;;;6.70;;
20150;SDS011;10236;49.638;6.830;2024-03-23T14:57:21;12.90;;;8.03;;
20150;SDS011;10236;49.638;6.830;2024-03-23T14:59:47;12.07;;;5.57;;
20150;SDS011;10236;49.638;6.830;2024-03-23T15:02:13;8.60;;;4.23;;
20150;SDS011;10236;49.638;6.830;2024-03-23T15:04:39;20.23;;;12.67;;
20150;SDS011;10236;49.638;6.830;2024-03-23T15:07:07;16.67;;;3.23;;
20150;SDS011;10236;49.638;6.830;2024-03-23T15:09:33;9.07;;;5.53;;
20150;SDS011;10236;49.638;6.830;2024-03-23T15:11:59;6.03;;;1.40;;
20150;SDS011;10236;49.638;6.830;2024-03-23T15:14:25;10.83;;;6.73;;
20150;SDS011;10236;49.638;6.830;2024-03-23T15:16:51;16.83;;;9.10;;
20150;SDS011;10236;49.638;6.830;2024-03-23T15:19:17;5.77;;;2.97;;
20150;SDS011;10236;49.638;6.830;2024-03-23T15:21:43;20.33;;;12.40;;
20150;SDS011;10236;49.638;6.830;2024-03-23T15:24:10;7.83;;;3.47;;
20150;SDS011;10236;49.638;6.830;2024-03-23T15:26:36;36.30;;;20.17;;
20150;SDS011;10236;49.638;6.830;2024-03-23T15:29:02;8.37;;;4.67;;
20150;SDS011;10236;49.638;6.830;2024-03-23T15:31:35;9.60;;;2.13;;
20150;SDS011;10236;49.638;6.830;2024-03-23T15:34:02;6.70;;;3.00;;
20150;SDS011;10236;49.638;6.830;2024-03-23T15:36:29;7.73;;;2.80;;
20150;SDS011;10236;49.638;6.830;2024-03-23T15:38:55;14.77;;;7.57;;
20150;SDS011;10236;49.638;6.830;2024-03-23T15:41:21;14.13;;;8.40;;
20150;SDS011;10236;49.638;6.830;2024-03-23T15:43:48;9.00;;;2.63;;
20150;SDS011;10236;49.638;6.830;2024-03-23T15:46:14;6.17;;;2.40;;
20150;SDS011;10236;49.638;6.830;2024-03-23T15:48:40;8.10;;;2.80;;
20150;SDS011;10236;49.638;6.830;2024-03-23T15:51:11;6.37;;;3.10;;
20150;SDS011;10236;49.638;6.830;2024-03-23T15:53:37;12.70;;;2.57;;
20150;SDS011;10236;49.638;6.830;2024-03-23T15:56:03;5.70;;;1.80;;